sensor_id;sensor_type;location;lat;lon;timestamp;P1;durP1;ratioP1;P2;durP2;ratioP2
15451;SDS011;7827;53.594;9.938;2023-03-01T00:01:46;13.40;;;7.20;;
15451;SDS011;7827;53.594;9.938;2023-03-01T00:04:15;12.90;;;6.83;;
15451;SDS011;7827;53.594;9.938;2023-03-01T00:06:43;11.10;;;6.57;;
15451;SDS011;7827;53.594;9.938;2023-03-01T00:09:13;13.63;;;6.10;;
15451;SDS011;7827;53.594;9.938;2023-03-01T00:11:42;12.67;;;6.30;;
15451;SDS011;7827;53.594;9.938;2023-03-01T00:14:11;11.90;;;7.03;;
15451;SDS011;7827;53.594;9.938;2023-03-01T00:16:49;15.33;;;7.20;;
15451;SDS011;7827;53.594;9.938;2023-03-01T00:19:19;16.37;;;6.63;;
15451;SDS011;7827;53.594;9.938;2023-03-01T00:21:48;10.97;;;6.77;;
15451;SDS011;7827;53.594;9.938;2023-03-01T00:24:16;14.40;;;7.17;;
15451;SDS011;7827;53.594;9.938;2023-03-01T00:26:45;9.83;;;6.40;;
15451;SDS011;7827;53.594;9.938;2023-03-01T00:29:13;9.67;;;6.97;;
15451;SDS011;7827;53.594;9.938;2023-03-01T00:31:41;16.57;;;7.53;;
15451;SDS011;7827;53.594;9.938;2023-03-01T00:34:11;11.87;;;6.40;;
15451;SDS011;7827;53.594;9.938;2023-03-01T00:36:40;11.23;;;6.30;;
15451;SDS011;7827;53.594;9.938;2023-03-01T00:39:09;10.80;;;6.07;;
15451;SDS011;7827;53.594;9.938;2023-03-01T00:41:41;9.23;;;5.90;;
15451;SDS011;7827;53.594;9.938;2023-03-01T00:44:09;8.50;;;6.13;;
15451;SDS011;7827;53.594;9.938;2023-03-01T00:46:38;11.33;;;6.53;;
15451;SDS011;7827;53.594;9.938;2023-03-01T00:49:07;12.63;;;6.57;;
15451;SDS011;7827;53.594;9.938;2023-03-01T00:51:36;9.77;;;6.30;;
15451;SDS011;7827;53.594;9.938;2023-03-01T00:54:07;9.03;;;6.20;;
15451;SDS011;7827;53.594;9.938;2023-03-01T00:56:36;12.57;;;6.20;;
15451;SDS011;7827;53.594;9.938;2023-03-01T00:59:05;8.93;;;6.27;;
15451;SDS011;7827;53.594;9.938;2023-03-01T01:01:33;11.87;;;7.27;;
15451;SDS011;7827;53.594;9.938;2023-03-01T01:04:03;12.80;;;6.33;;
15451;SDS011;7827;53.594;9.938;2023-03-01T01:06:39;14.73;;;6.60;;
15451;SDS011;7827;53.594;9.938;2023-03-01T01:09:10;11.83;;;6.20;;
15451;SDS011;7827;53.594;9.938;2023-03-01T01:11:44;11.73;;;7.37;;
15451;SDS011;7827;53.594;9.938;2023-03-01T01:14:15;12.43;;;6.93;;
15451;SDS011;7827;53.594;9.938;2023-03-01T01:16:44;11.30;;;6.73;;
15451;SDS011;7827;53.594;9.938;2023-03-01T01:19:13;12.13;;;6.47;;
15451;SDS011;7827;53.594;9.938;2023-03-01T01:21:43;13.40;;;6.97;;
15451;SDS011;7827;53.594;9.938;2023-03-01T01:24:11;11.00;;;6.30;;
15451;SDS011;7827;53.594;9.938;2023-03-01T01:26:40;9.63;;;6.33;;
15451;SDS011;7827;53.594;9.938;2023-03-01T01:29:09;11.03;;;6.60;;
15451;SDS011;7827;53.594;9.938;2023-03-01T01:31:39;9.13;;;6.03;;
15451;SDS011;7827;53.594;9.938;2023-03-01T01:34:12;9.27;;;6.30;;
15451;SDS011;7827;53.594;9.938;2023-03-01T01:36:47;8.13;;;5.83;;
15451;SDS011;7827;53.594;9.938;2023-03-01T01:39:16;7.53;;;5.40;;
15451;SDS011;7827;53.594;9.938;2023-03-01T01:41:45;11.03;;;6.27;;
15451;SDS011;7827;53.594;9.938;2023-03-01T01:44:15;9.13;;;5.83;;
15451;SDS011;7827;53.594;9.938;2023-03-01T01:46:47;12.87;;;6.37;;
15451;SDS011;7827;53.594;9.938;2023-03-01T01:49:25;9.10;;;6.30;;
15451;SDS011;7827;53.594;9.938;2023-03-01T01:52:03;8.83;;;5.83;;
15451;SDS011;7827;53.594;9.938;2023-03-01T01:54:40;9.87;;;6.50;;
15451;SDS011;7827;53.594;9.938;2023-03-01T01:57:16;12.13;;;7.03;;
15451;SDS011;7827;53.594;9.938;2023-03-01T01:59:49;8.37;;;6.53;;
15451;SDS011;7827;53.594;9.938;2023-03-01T02:02:22;10.93;;;6.33;;
15451;SDS011;7827;53.594;9.938;2023-03-01T02:04:53;10.23;;;6.00;;
15451;SDS011;7827;53.594;9.938;2023-03-01T02:07:32;11.87;;;6.93;;
15451;SDS011;7827;53.594;9.938;2023-03-01T02:10:00;9.77;;;6.47;;
15451;SDS011;7827;53.594;9.938;2023-03-01T02:12:30;9.70;;;6.47;;
15451;SDS011;7827;53.594;9.938;2023-03-01T02:14:58;10.03;;;6.70;;
15451;SDS011;7827;53.594;9.938;2023-03-01T02:17:27;9.80;;;6.53;;
15451;SDS011;7827;53.594;9.938;2023-03-01T02:19:59;12.50;;;7.00;;
15451;SDS011;7827;53.594;9.938;2023-03-01T02:22:45;12.17;;;6.87;;
15451;SDS011;7827;53.594;9.938;2023-03-01T02:25:23;9.93;;;7.30;;
15451;SDS011;7827;53.594;9.938;2023-03-01T02:28:02;9.97;;;6.93;;
15451;SDS011;7827;53.594;9.938;2023-03-01T02:30:40;11.30;;;7.10;;
15451;SDS011;7827;53.594;9.938;2023-03-01T02:33:30;11.30;;;6.73;;
15451;SDS011;7827;53.594;9.938;2023-03-01T02:36:00;10.00;;;6.63;;
15451;SDS011;7827;53.594;9.938;2023-03-01T02:38:32;12.23;;;7.53;;
15451;SDS011;7827;53.594;9.938;2023-03-01T02:41:00;12.67;;;6.90;;
15451;SDS011;7827;53.594;9.938;2023-03-01T02:43:34;10.07;;;7.30;;
15451;SDS011;7827;53.594;9.938;2023-03-01T02:46:06;9.40;;;7.13;;
15451;SDS011;7827;53.594;9.938;2023-03-01T02:48:41;9.70;;;7.53;;
15451;SDS011;7827;53.594;9.938;2023-03-01T02:51:22;14.03;;;6.73;;
15451;SDS011;7827;53.594;9.938;2023-03-01T02:54:08;10.50;;;7.27;;
15451;SDS011;7827;53.594;9.938;2023-03-01T02:56:47;13.93;;;8.17;;
15451;SDS011;7827;53.594;9.938;2023-03-01T02:59:20;12.53;;;7.60;;
15451;SDS011;7827;53.594;9.938;2023-03-01T03:01:53;15.93;;;7.37;;
15451;SDS011;7827;53.594;9.938;2023-03-01T03:04:21;17.83;;;7.60;;
15451;SDS011;7827;53.594;9.938;2023-03-01T03:06:50;11.03;;;6.80;;
15451;SDS011;7827;53.594;9.938;2023-03-01T03:09:19;14.53;;;7.80;;
15451;SDS011;7827;53.594;9.938;2023-03-01T03:11:47;15.47;;;7.67;;
15451;SDS011;7827;53.594;9.938;2023-03-01T03:14:16;12.73;;;7.87;;
15451;SDS011;7827;53.594;9.938;2023-03-01T03:16:47;16.13;;;8.10;;
15451;SDS011;7827;53.594;9.938;2023-03-01T03:19:18;13.40;;;7.93;;
15451;SDS011;7827;53.594;9.938;2023-03-01T03:21:47;17.67;;;8.17;;
15451;SDS011;7827;53.594;9.938;2023-03-01T03:24:15;16.77;;;7.90;;
15451;SDS011;7827;53.594;9.938;2023-03-01T03:26:44;17.27;;;8.10;;
15451;SDS011;7827;53.594;9.938;2023-03-01T03:29:12;21.83;;;8.80;;
15451;SDS011;7827;53.594;9.938;2023-03-01T03:31:41;18.67;;;8.60;;
15451;SDS011;7827;53.594;9.938;2023-03-01T03:34:09;14.53;;;8.13;;
15451;SDS011;7827;53.594;9.938;2023-03-01T03:36:45;13.00;;;7.50;;
15451;SDS011;7827;53.594;9.938;2023-03-01T03:39:14;16.70;;;8.17;;
15451;SDS011;7827;53.594;9.938;2023-03-01T03:41:45;17.13;;;8.37;;
15451;SDS011;7827;53.594;9.938;2023-03-01T03:44:13;13.27;;;7.77;;
15451;SDS011;7827;53.594;9.938;2023-03-01T03:46:41;10.80;;;7.47;;
15451;SDS011;7827;53.594;9.938;2023-03-01T03:49:10;15.27;;;7.63;;
15451;SDS011;7827;53.594;9.938;2023-03-01T03:51:38;16.23;;;7.53;;
15451;SDS011;7827;53.594;9.938;2023-03-01T03:54:08;15.03;;;8.03;;
15451;SDS011;7827;53.594;9.938;2023-03-01T03:56:37;16.90;;;8.50;;
15451;SDS011;7827;53.594;9.938;2023-03-01T03:59:06;19.23;;;8.50;;
15451;SDS011;7827;53.594;9.938;2023-03-01T04:01:37;12.90;;;7.40;;
15451;SDS011;7827;53.594;9.938;2023-03-01T04:04:06;11.93;;;7.80;;
15451;SDS011;7827;53.594;9.938;2023-03-01T04:06:34;18.00;;;8.47;;
15451;SDS011;7827;53.594;9.938;2023-03-01T04:09:02;12.53;;;7.47;;
15451;SDS011;7827;53.594;9.938;2023-03-01T04:11:32;18.10;;;8.63;;
15451;SDS011;7827;53.594;9.938;2023-03-01T04:14:01;12.30;;;7.70;;
15451;SDS011;7827;53.594;9.938;2023-03-01T04:16:30;10.13;;;7.80;;
15451;SDS011;7827;53.594;9.938;2023-03-01T04:18:59;15.27;;;8.00;;
15451;SDS011;7827;53.594;9.938;2023-03-01T04:21:27;12.57;;;8.17;;
15451;SDS011;7827;53.594;9.938;2023-03-01T04:23:56;16.27;;;8.70;;
15451;SDS011;7827;53.594;9.938;2023-03-01T04:26:24;12.70;;;8.23;;
15451;SDS011;7827;53.594;9.938;2023-03-01T04:28:54;14.93;;;8.43;;
15451;SDS011;7827;53.594;9.938;2023-03-01T04:31:23;14.30;;;7.80;;
15451;SDS011;7827;53.594;9.938;2023-03-01T04:33:52;16.37;;;9.30;;
15451;SDS011;7827;53.594;9.938;2023-03-01T04:36:24;12.43;;;8.10;;
15451;SDS011;7827;53.594;9.938;2023-03-01T04:38:56;15.20;;;8.77;;
15451;SDS011;7827;53.594;9.938;2023-03-01T04:41:25;12.80;;;8.37;;
15451;SDS011;7827;53.594;9.938;2023-03-01T04:43:55;12.20;;;7.70;;
15451;SDS011;7827;53.594;9.938;2023-03-01T04:46:26;11.33;;;7.67;;
15451;SDS011;7827;53.594;9.938;2023-03-01T04:48:55;12.63;;;7.30;;
15451;SDS011;7827;53.594;9.938;2023-03-01T04:51:24;14.53;;;8.37;;
15451;SDS011;7827;53.594;9.938;2023-03-01T04:53:52;11.83;;;7.47;;
15451;SDS011;7827;53.594;9.938;2023-03-01T04:56:20;19.07;;;7.73;;
15451;SDS011;7827;53.594;9.938;2023-03-01T04:58:49;11.20;;;7.90;;
15451;SDS011;7827;53.594;9.938;2023-03-01T05:01:22;12.07;;;6.97;;
15451;SDS011;7827;53.594;9.938;2023-03-01T05:03:50;13.60;;;7.17;;
15451;SDS011;7827;53.594;9.938;2023-03-01T05:06:19;11.83;;;7.10;;
15451;SDS011;7827;53.594;9.938;2023-03-01T05:08:48;15.23;;;7.33;;
15451;SDS011;7827;53.594;9.938;2023-03-01T05:11:16;11.87;;;6.97;;
15451;SDS011;7827;53.594;9.938;2023-03-01T05:13:45;13.77;;;7.63;;
15451;SDS011;7827;53.594;9.938;2023-03-01T05:16:13;11.30;;;7.97;;
15451;SDS011;7827;53.594;9.938;2023-03-01T05:18:44;12.77;;;7.73;;
15451;SDS011;7827;53.594;9.938;2023-03-01T05:21:13;14.20;;;8.07;;
15451;SDS011;7827;53.594;9.938;2023-03-01T05:23:43;13.67;;;7.50;;
15451;SDS011;7827;53.594;9.938;2023-03-01T05:26:13;14.57;;;8.70;;
15451;SDS011;7827;53.594;9.938;2023-03-01T05:28:58;11.50;;;7.43;;
15451;SDS011;7827;53.594;9.938;2023-03-01T05:31:27;13.43;;;7.57;;
15451;SDS011;7827;53.594;9.938;2023-03-01T05:33:58;14.17;;;7.40;;
15451;SDS011;7827;53.594;9.938;2023-03-01T05:36:28;15.37;;;7.83;;
15451;SDS011;7827;53.594;9.938;2023-03-01T05:38:56;11.07;;;7.60;;
15451;SDS011;7827;53.594;9.938;2023-03-01T05:41:25;11.90;;;7.00;;
15451;SDS011;7827;53.594;9.938;2023-03-01T05:43:53;12.97;;;6.87;;
15451;SDS011;7827;53.594;9.938;2023-03-01T05:46:21;11.43;;;7.20;;
15451;SDS011;7827;53.594;9.938;2023-03-01T05:48:50;11.13;;;7.37;;
15451;SDS011;7827;53.594;9.938;2023-03-01T05:51:20;12.17;;;7.53;;
15451;SDS011;7827;53.594;9.938;2023-03-01T05:53:48;11.97;;;6.80;;
15451;SDS011;7827;53.594;9.938;2023-03-01T05:56:17;14.00;;;6.80;;
15451;SDS011;7827;53.594;9.938;2023-03-01T05:58:45;11.20;;;6.93;;
15451;SDS011;7827;53.594;9.938;2023-03-01T06:01:15;12.83;;;7.03;;
15451;SDS011;7827;53.594;9.938;2023-03-01T06:03:43;10.70;;;6.67;;
15451;SDS011;7827;53.594;9.938;2023-03-01T06:06:12;7.80;;;6.07;;
15451;SDS011;7827;53.594;9.938;2023-03-01T06:08:41;9.73;;;6.80;;
15451;SDS011;7827;53.594;9.938;2023-03-01T06:11:10;11.50;;;6.73;;
15451;SDS011;7827;53.594;9.938;2023-03-01T06:13:38;9.27;;;6.43;;
15451;SDS011;7827;53.594;9.938;2023-03-01T06:16:06;13.73;;;6.97;;
15451;SDS011;7827;53.594;9.938;2023-03-01T06:18:36;8.43;;;6.27;;
15451;SDS011;7827;53.594;9.938;2023-03-01T06:21:05;11.73;;;6.40;;
15451;SDS011;7827;53.594;9.938;2023-03-01T06:23:34;9.63;;;6.67;;
15451;SDS011;7827;53.594;9.938;2023-03-01T06:26:06;10.63;;;6.53;;
15451;SDS011;7827;53.594;9.938;2023-03-01T06:28:35;14.53;;;6.70;;
15451;SDS011;7827;53.594;9.938;2023-03-01T06:31:04;12.03;;;6.60;;
15451;SDS011;7827;53.594;9.938;2023-03-01T06:33:35;8.50;;;5.90;;
15451;SDS011;7827;53.594;9.938;2023-03-01T06:36:03;17.13;;;6.70;;
15451;SDS011;7827;53.594;9.938;2023-03-01T06:38:33;10.63;;;6.30;;
15451;SDS011;7827;53.594;9.938;2023-03-01T06:41:01;9.57;;;5.77;;
15451;SDS011;7827;53.594;9.938;2023-03-01T06:43:31;12.07;;;6.00;;
15451;SDS011;7827;53.594;9.938;2023-03-01T06:45:59;11.07;;;5.57;;
15451;SDS011;7827;53.594;9.938;2023-03-01T06:48:31;9.37;;;6.47;;
15451;SDS011;7827;53.594;9.938;2023-03-01T06:50:59;11.93;;;5.93;;
15451;SDS011;7827;53.594;9.938;2023-03-01T06:53:28;14.73;;;6.30;;
15451;SDS011;7827;53.594;9.938;2023-03-01T06:55:57;10.07;;;6.03;;
15451;SDS011;7827;53.594;9.938;2023-03-01T06:58:26;10.50;;;6.33;;
15451;SDS011;7827;53.594;9.938;2023-03-01T07:00:56;9.60;;;6.00;;
15451;SDS011;7827;53.594;9.938;2023-03-01T07:03:24;11.03;;;6.30;;
15451;SDS011;7827;53.594;9.938;2023-03-01T07:05:52;9.87;;;6.20;;
15451;SDS011;7827;53.594;9.938;2023-03-01T07:08:21;10.47;;;6.47;;
15451;SDS011;7827;53.594;9.938;2023-03-01T07:10:54;10.93;;;6.30;;
15451;SDS011;7827;53.594;9.938;2023-03-01T07:13:23;10.17;;;6.03;;
15451;SDS011;7827;53.594;9.938;2023-03-01T07:15:51;13.07;;;7.57;;
15451;SDS011;7827;53.594;9.938;2023-03-01T07:18:21;11.93;;;7.27;;
15451;SDS011;7827;53.594;9.938;2023-03-01T07:20:50;13.90;;;6.90;;
15451;SDS011;7827;53.594;9.938;2023-03-01T07:23:18;17.73;;;7.03;;
15451;SDS011;7827;53.594;9.938;2023-03-01T07:25:50;15.47;;;7.00;;
15451;SDS011;7827;53.594;9.938;2023-03-01T07:28:20;15.07;;;6.60;;
15451;SDS011;7827;53.594;9.938;2023-03-01T07:30:50;14.90;;;7.43;;
15451;SDS011;7827;53.594;9.938;2023-03-01T07:33:18;14.83;;;7.63;;
15451;SDS011;7827;53.594;9.938;2023-03-01T07:35:48;11.83;;;7.03;;
15451;SDS011;7827;53.594;9.938;2023-03-01T07:38:25;14.50;;;8.13;;
15451;SDS011;7827;53.594;9.938;2023-03-01T07:40:57;16.80;;;8.00;;
15451;SDS011;7827;53.594;9.938;2023-03-01T07:43:26;17.03;;;8.00;;
15451;SDS011;7827;53.594;9.938;2023-03-01T07:45:58;12.70;;;7.97;;
15451;SDS011;7827;53.594;9.938;2023-03-01T07:48:28;14.47;;;8.70;;
15451;SDS011;7827;53.594;9.938;2023-03-01T07:50:59;13.17;;;9.43;;
15451;SDS011;7827;53.594;9.938;2023-03-01T07:53:28;15.97;;;10.60;;
15451;SDS011;7827;53.594;9.938;2023-03-01T07:56:02;12.97;;;10.20;;
15451;SDS011;7827;53.594;9.938;2023-03-01T07:58:33;15.40;;;11.33;;
15451;SDS011;7827;53.594;9.938;2023-03-01T08:01:03;18.00;;;12.07;;
15451;SDS011;7827;53.594;9.938;2023-03-01T08:03:32;18.87;;;14.00;;
15451;SDS011;7827;53.594;9.938;2023-03-01T08:06:04;20.13;;;13.97;;
15451;SDS011;7827;53.594;9.938;2023-03-01T08:08:36;22.43;;;14.20;;
15451;SDS011;7827;53.594;9.938;2023-03-01T08:11:05;20.83;;;15.43;;
15451;SDS011;7827;53.594;9.938;2023-03-01T08:13:35;19.33;;;15.30;;
15451;SDS011;7827;53.594;9.938;2023-03-01T08:16:04;20.97;;;14.87;;
15451;SDS011;7827;53.594;9.938;2023-03-01T08:18:36;18.77;;;13.93;;
15451;SDS011;7827;53.594;9.938;2023-03-01T08:21:06;21.37;;;14.17;;
15451;SDS011;7827;53.594;9.938;2023-03-01T08:23:38;21.57;;;15.20;;
15451;SDS011;7827;53.594;9.938;2023-03-01T08:26:09;21.47;;;14.77;;
15451;SDS011;7827;53.594;9.938;2023-03-01T08:28:40;25.77;;;15.83;;
15451;SDS011;7827;53.594;9.938;2023-03-01T08:31:13;25.67;;;15.30;;
15451;SDS011;7827;53.594;9.938;2023-03-01T08:33:44;25.30;;;15.07;;
15451;SDS011;7827;53.594;9.938;2023-03-01T08:36:18;24.27;;;15.50;;
15451;SDS011;7827;53.594;9.938;2023-03-01T08:38:47;22.77;;;15.80;;
15451;SDS011;7827;53.594;9.938;2023-03-01T08:41:15;21.73;;;15.37;;
15451;SDS011;7827;53.594;9.938;2023-03-01T08:43:44;21.97;;;15.03;;
15451;SDS011;7827;53.594;9.938;2023-03-01T08:46:13;19.60;;;14.87;;
15451;SDS011;7827;53.594;9.938;2023-03-01T08:48:42;21.87;;;16.07;;
15451;SDS011;7827;53.594;9.938;2023-03-01T08:51:11;21.87;;;15.77;;
15451;SDS011;7827;53.594;9.938;2023-03-01T08:53:43;23.90;;;16.10;;
15451;SDS011;7827;53.594;9.938;2023-03-01T08:56:12;20.23;;;15.00;;
15451;SDS011;7827;53.594;9.938;2023-03-01T08:58:43;24.40;;;16.17;;
15451;SDS011;7827;53.594;9.938;2023-03-01T09:01:14;21.80;;;15.87;;
15451;SDS011;7827;53.594;9.938;2023-03-01T09:03:46;25.60;;;16.43;;
15451;SDS011;7827;53.594;9.938;2023-03-01T09:06:14;25.07;;;17.20;;
15451;SDS011;7827;53.594;9.938;2023-03-01T09:08:45;22.70;;;15.77;;
15451;SDS011;7827;53.594;9.938;2023-03-01T09:11:16;21.37;;;15.60;;
15451;SDS011;7827;53.594;9.938;2023-03-01T09:13:47;21.57;;;15.60;;
15451;SDS011;7827;53.594;9.938;2023-03-01T09:16:17;19.57;;;14.73;;
15451;SDS011;7827;53.594;9.938;2023-03-01T09:18:48;25.57;;;15.60;;
15451;SDS011;7827;53.594;9.938;2023-03-01T09:21:19;20.43;;;15.23;;
15451;SDS011;7827;53.594;9.938;2023-03-01T09:24:08;23.57;;;16.63;;
15451;SDS011;7827;53.594;9.938;2023-03-01T09:26:41;22.17;;;16.37;;
15451;SDS011;7827;53.594;9.938;2023-03-01T09:29:14;24.30;;;16.77;;
15451;SDS011;7827;53.594;9.938;2023-03-01T09:31:43;23.43;;;16.43;;
15451;SDS011;7827;53.594;9.938;2023-03-01T09:34:12;24.43;;;16.03;;
15451;SDS011;7827;53.594;9.938;2023-03-01T09:36:42;22.10;;;16.03;;
15451;SDS011;7827;53.594;9.938;2023-03-01T09:39:12;24.90;;;15.67;;
15451;SDS011;7827;53.594;9.938;2023-03-01T09:41:44;21.80;;;15.80;;
15451;SDS011;7827;53.594;9.938;2023-03-01T09:44:20;26.00;;;15.83;;
15451;SDS011;7827;53.594;9.938;2023-03-01T09:46:58;21.33;;;15.77;;
15451;SDS011;7827;53.594;9.938;2023-03-01T09:49:28;22.63;;;16.07;;
15451;SDS011;7827;53.594;9.938;2023-03-01T09:52:01;24.63;;;16.03;;
15451;SDS011;7827;53.594;9.938;2023-03-01T09:54:52;19.87;;;15.53;;
15451;SDS011;7827;53.594;9.938;2023-03-01T09:57:28;21.43;;;15.90;;
15451;SDS011;7827;53.594;9.938;2023-03-01T10:00:12;23.67;;;15.10;;
15451;SDS011;7827;53.594;9.938;2023-03-01T10:03:08;25.83;;;16.07;;
15451;SDS011;7827;53.594;9.938;2023-03-01T10:05:48;20.27;;;14.53;;
15451;SDS011;7827;53.594;9.938;2023-03-01T10:08:36;20.80;;;14.13;;
15451;SDS011;7827;53.594;9.938;2023-03-01T10:11:17;24.93;;;16.07;;
15451;SDS011;7827;53.594;9.938;2023-03-01T10:14:01;25.70;;;16.17;;
15451;SDS011;7827;53.594;9.938;2023-03-01T10:16:42;23.53;;;15.13;;
15451;SDS011;7827;53.594;9.938;2023-03-01T10:19:22;25.17;;;15.67;;
15451;SDS011;7827;53.594;9.938;2023-03-01T10:21:57;24.40;;;15.33;;
15451;SDS011;7827;53.594;9.938;2023-03-01T10:24:32;28.87;;;17.07;;
15451;SDS011;7827;53.594;9.938;2023-03-01T10:27:06;25.83;;;16.00;;
15451;SDS011;7827;53.594;9.938;2023-03-01T10:29:46;20.57;;;13.87;;
15451;SDS011;7827;53.594;9.938;2023-03-01T10:32:26;19.27;;;12.77;;
15451;SDS011;7827;53.594;9.938;2023-03-01T10:34:55;19.40;;;12.67;;
15451;SDS011;7827;53.594;9.938;2023-03-01T10:37:23;18.20;;;11.87;;
15451;SDS011;7827;53.594;9.938;2023-03-01T10:39:57;24.60;;;10.40;;
15451;SDS011;7827;53.594;9.938;2023-03-01T10:42:34;18.37;;;10.87;;
15451;SDS011;7827;53.594;9.938;2023-03-01T10:45:16;16.13;;;11.70;;
15451;SDS011;7827;53.594;9.938;2023-03-01T10:48:12;16.93;;;11.13;;
15451;SDS011;7827;53.594;9.938;2023-03-01T10:50:43;15.47;;;9.80;;
15451;SDS011;7827;53.594;9.938;2023-03-01T10:56:03;13.03;;;9.30;;
15451;SDS011;7827;53.594;9.938;2023-03-01T10:58:37;13.13;;;9.00;;
15451;SDS011;7827;53.594;9.938;2023-03-01T11:01:23;13.43;;;9.57;;
15451;SDS011;7827;53.594;9.938;2023-03-01T11:04:10;12.53;;;8.40;;
15451;SDS011;7827;53.594;9.938;2023-03-01T11:06:40;16.57;;;9.20;;
15451;SDS011;7827;53.594;9.938;2023-03-01T11:09:13;13.90;;;9.30;;
15451;SDS011;7827;53.594;9.938;2023-03-01T11:11:45;13.13;;;8.97;;
15451;SDS011;7827;53.594;9.938;2023-03-01T11:14:16;13.60;;;9.47;;
15451;SDS011;7827;53.594;9.938;2023-03-01T11:16:59;12.47;;;8.63;;
15451;SDS011;7827;53.594;9.938;2023-03-01T11:19:31;13.33;;;9.43;;
15451;SDS011;7827;53.594;9.938;2023-03-01T11:22:02;12.33;;;9.60;;
15451;SDS011;7827;53.594;9.938;2023-03-01T11:24:39;12.17;;;8.10;;
15451;SDS011;7827;53.594;9.938;2023-03-01T11:27:14;15.40;;;10.13;;
15451;SDS011;7827;53.594;9.938;2023-03-01T11:29:52;12.93;;;9.67;;
15451;SDS011;7827;53.594;9.938;2023-03-01T11:32:28;15.17;;;9.13;;
15451;SDS011;7827;53.594;9.938;2023-03-01T11:35:04;14.17;;;9.53;;
15451;SDS011;7827;53.594;9.938;2023-03-01T11:37:43;13.53;;;9.23;;
15451;SDS011;7827;53.594;9.938;2023-03-01T11:40:27;12.00;;;9.40;;
15451;SDS011;7827;53.594;9.938;2023-03-01T11:43:04;12.00;;;7.93;;
15451;SDS011;7827;53.594;9.938;2023-03-01T11:45:47;12.67;;;9.03;;
15451;SDS011;7827;53.594;9.938;2023-03-01T11:48:48;12.73;;;9.30;;
15451;SDS011;7827;53.594;9.938;2023-03-01T11:51:36;13.97;;;9.00;;
15451;SDS011;7827;53.594;9.938;2023-03-01T11:54:20;13.87;;;9.23;;
15451;SDS011;7827;53.594;9.938;2023-03-01T11:57:01;16.30;;;9.37;;
15451;SDS011;7827;53.594;9.938;2023-03-01T11:59:48;14.13;;;8.90;;
15451;SDS011;7827;53.594;9.938;2023-03-01T12:06:09;12.70;;;9.20;;
15451;SDS011;7827;53.594;9.938;2023-03-01T12:08:53;10.57;;;7.83;;
15451;SDS011;7827;53.594;9.938;2023-03-01T12:11:39;12.73;;;8.40;;
15451;SDS011;7827;53.594;9.938;2023-03-01T12:14:44;11.63;;;8.57;;
15451;SDS011;7827;53.594;9.938;2023-03-01T12:20:43;9.87;;;7.60;;
15451;SDS011;7827;53.594;9.938;2023-03-01T12:23:29;12.57;;;8.33;;
15451;SDS011;7827;53.594;9.938;2023-03-01T12:26:27;11.00;;;7.77;;
15451;SDS011;7827;53.594;9.938;2023-03-01T12:29:14;10.63;;;7.30;;
15451;SDS011;7827;53.594;9.938;2023-03-01T12:35:20;12.20;;;8.17;;
15451;SDS011;7827;53.594;9.938;2023-03-01T12:38:33;11.60;;;8.70;;
15451;SDS011;7827;53.594;9.938;2023-03-01T12:41:26;13.10;;;8.63;;
15451;SDS011;7827;53.594;9.938;2023-03-01T12:44:12;10.97;;;8.47;;
15451;SDS011;7827;53.594;9.938;2023-03-01T12:47:02;14.50;;;10.17;;
15451;SDS011;7827;53.594;9.938;2023-03-01T12:49:44;11.60;;;8.83;;
15451;SDS011;7827;53.594;9.938;2023-03-01T12:52:19;12.13;;;8.63;;
15451;SDS011;7827;53.594;9.938;2023-03-01T12:54:58;13.50;;;8.77;;
15451;SDS011;7827;53.594;9.938;2023-03-01T12:57:34;12.43;;;9.00;;
15451;SDS011;7827;53.594;9.938;2023-03-01T13:00:16;11.03;;;8.60;;
15451;SDS011;7827;53.594;9.938;2023-03-01T13:02:56;14.63;;;9.90;;
15451;SDS011;7827;53.594;9.938;2023-03-01T13:05:34;39.60;;;22.60;;
15451;SDS011;7827;53.594;9.938;2023-03-01T13:08:16;20.23;;;11.10;;
15451;SDS011;7827;53.594;9.938;2023-03-01T13:10:56;13.47;;;9.47;;
15451;SDS011;7827;53.594;9.938;2023-03-01T13:13:29;13.53;;;9.80;;
15451;SDS011;7827;53.594;9.938;2023-03-01T13:16:11;14.53;;;10.43;;
15451;SDS011;7827;53.594;9.938;2023-03-01T13:19:06;11.60;;;9.10;;
15451;SDS011;7827;53.594;9.938;2023-03-01T13:21:43;13.33;;;9.83;;
15451;SDS011;7827;53.594;9.938;2023-03-01T13:24:26;12.70;;;9.93;;
15451;SDS011;7827;53.594;9.938;2023-03-01T13:27:18;13.23;;;9.10;;
15451;SDS011;7827;53.594;9.938;2023-03-01T13:29:55;11.17;;;8.13;;
15451;SDS011;7827;53.594;9.938;2023-03-01T13:32:30;13.87;;;9.00;;
15451;SDS011;7827;53.594;9.938;2023-03-01T13:44:23;12.07;;;9.30;;
15451;SDS011;7827;53.594;9.938;2023-03-01T13:46:58;13.93;;;9.07;;
15451;SDS011;7827;53.594;9.938;2023-03-01T13:49:36;11.63;;;8.73;;
15451;SDS011;7827;53.594;9.938;2023-03-01T13:52:23;10.43;;;7.40;;
15451;SDS011;7827;53.594;9.938;2023-03-01T13:55:14;9.87;;;7.60;;
15451;SDS011;7827;53.594;9.938;2023-03-01T13:57:48;9.13;;;6.80;;
15451;SDS011;7827;53.594;9.938;2023-03-01T14:00:26;10.70;;;7.17;;
15451;SDS011;7827;53.594;9.938;2023-03-01T14:03:08;9.90;;;6.90;;
15451;SDS011;7827;53.594;9.938;2023-03-01T14:05:42;10.57;;;7.60;;
15451;SDS011;7827;53.594;9.938;2023-03-01T14:08:39;10.40;;;6.10;;
15451;SDS011;7827;53.594;9.938;2023-03-01T14:14:29;8.57;;;6.80;;
15451;SDS011;7827;53.594;9.938;2023-03-01T14:17:13;8.63;;;6.43;;
15451;SDS011;7827;53.594;9.938;2023-03-01T14:20:17;9.60;;;6.53;;
15451;SDS011;7827;53.594;9.938;2023-03-01T14:22:48;9.23;;;7.07;;
15451;SDS011;7827;53.594;9.938;2023-03-01T14:25:25;8.70;;;6.60;;
15451;SDS011;7827;53.594;9.938;2023-03-01T14:28:02;9.07;;;6.33;;
15451;SDS011;7827;53.594;9.938;2023-03-01T14:30:41;9.87;;;7.40;;
15451;SDS011;7827;53.594;9.938;2023-03-01T14:33:20;11.53;;;7.80;;
15451;SDS011;7827;53.594;9.938;2023-03-01T14:35:52;9.57;;;7.13;;
15451;SDS011;7827;53.594;9.938;2023-03-01T14:38:28;8.13;;;6.63;;
15451;SDS011;7827;53.594;9.938;2023-03-01T14:41:02;9.63;;;6.87;;
15451;SDS011;7827;53.594;9.938;2023-03-01T14:43:35;9.37;;;6.93;;
15451;SDS011;7827;53.594;9.938;2023-03-01T14:46:05;11.13;;;8.10;;
15451;SDS011;7827;53.594;9.938;2023-03-01T14:48:45;13.57;;;7.57;;
15451;SDS011;7827;53.594;9.938;2023-03-01T14:51:17;10.27;;;7.53;;
15451;SDS011;7827;53.594;9.938;2023-03-01T14:53:46;11.50;;;7.33;;
15451;SDS011;7827;53.594;9.938;2023-03-01T14:56:17;10.97;;;8.17;;
15451;SDS011;7827;53.594;9.938;2023-03-01T14:58:50;10.47;;;7.60;;
15451;SDS011;7827;53.594;9.938;2023-03-01T15:01:20;10.53;;;7.40;;
15451;SDS011;7827;53.594;9.938;2023-03-01T15:03:51;12.90;;;8.43;;
15451;SDS011;7827;53.594;9.938;2023-03-01T15:06:20;11.90;;;9.07;;
15451;SDS011;7827;53.594;9.938;2023-03-01T15:08:51;11.90;;;8.13;;
15451;SDS011;7827;53.594;9.938;2023-03-01T15:11:24;13.23;;;8.03;;
15451;SDS011;7827;53.594;9.938;2023-03-01T15:13:56;11.97;;;8.90;;
15451;SDS011;7827;53.594;9.938;2023-03-01T15:16:26;11.67;;;8.37;;
15451;SDS011;7827;53.594;9.938;2023-03-01T15:19:00;10.97;;;7.87;;
15451;SDS011;7827;53.594;9.938;2023-03-01T15:21:31;12.10;;;8.77;;
15451;SDS011;7827;53.594;9.938;2023-03-01T15:24:05;12.67;;;8.90;;
15451;SDS011;7827;53.594;9.938;2023-03-01T15:26:50;12.63;;;9.43;;
15451;SDS011;7827;53.594;9.938;2023-03-01T15:29:22;14.47;;;10.10;;
15451;SDS011;7827;53.594;9.938;2023-03-01T15:31:56;12.53;;;9.10;;
15451;SDS011;7827;53.594;9.938;2023-03-01T15:34:29;12.17;;;8.50;;
15451;SDS011;7827;53.594;9.938;2023-03-01T15:36:59;15.67;;;10.30;;
15451;SDS011;7827;53.594;9.938;2023-03-01T15:39:33;22.37;;;10.80;;
15451;SDS011;7827;53.594;9.938;2023-03-01T15:42:10;16.13;;;10.50;;
15451;SDS011;7827;53.594;9.938;2023-03-01T15:44:42;13.37;;;9.40;;
15451;SDS011;7827;53.594;9.938;2023-03-01T15:47:28;16.80;;;11.67;;
15451;SDS011;7827;53.594;9.938;2023-03-01T15:50:00;21.20;;;11.97;;